createdAt,value
2023-04-02T00:02:23.123Z,5.88
2023-04-02T00:05:20.636Z,5.86
2023-04-02T00:07:50.110Z,5.85
2023-04-02T00:10:39.331Z,5.85
2023-04-02T00:13:10.422Z,5.82
2023-04-02T00:15:38.426Z,5.82
2023-04-02T00:18:05.867Z,5.81
2023-04-02T00:20:38.431Z,5.81
2023-04-02T00:23:05.527Z,5.81
2023-04-02T00:25:37.258Z,5.81
2023-04-02T00:28:04.653Z,5.80
2023-04-02T00:30:31.022Z,5.80
2023-04-02T00:32:57.925Z,5.79
2023-04-02T00:35:29.056Z,5.77
2023-04-02T00:37:56.742Z,5.78
2023-04-02T00:40:25.588Z,5.77
2023-04-02T00:42:54.636Z,5.78
2023-04-02T00:45:30.851Z,5.78
2023-04-02T00:48:00.047Z,5.76
2023-04-02T00:50:34.653Z,5.79
2023-04-02T00:53:08.640Z,5.72
2023-04-02T00:55:39.214Z,5.70
2023-04-02T00:58:19.058Z,5.66
2023-04-02T01:00:50.137Z,5.65
2023-04-02T01:03:16.729Z,5.63
2023-04-02T01:05:48.333Z,5.60
2023-04-02T01:08:56.406Z,5.60
2023-04-02T01:11:28.595Z,5.60
2023-04-02T01:14:20.008Z,5.59
2023-04-02T01:17:00.511Z,5.59
2023-04-02T01:19:49.088Z,5.56
2023-04-02T01:22:42.460Z,5.56
2023-04-02T01:25:17.738Z,5.59
2023-04-02T01:28:05.049Z,5.53
2023-04-02T01:30:34.840Z,5.52
2023-04-02T01:33:01.387Z,5.52
2023-04-02T01:35:34.353Z,5.51
2023-04-02T01:38:38.433Z,5.50
2023-04-02T01:41:18.164Z,5.50
2023-04-02T01:44:01.385Z,5.49
2023-04-02T01:46:31.951Z,5.49
2023-04-02T01:49:02.536Z,5.46
2023-04-02T01:51:33.221Z,5.44
2023-04-02T01:54:01.941Z,5.43
2023-04-02T01:56:30.444Z,5.43
2023-04-02T01:58:58.404Z,5.40
2023-04-02T02:01:31.071Z,5.36
2023-04-02T02:03:57.693Z,5.35
2023-04-02T02:06:24.598Z,5.35
2023-04-02T02:09:01.349Z,5.34
2023-04-02T02:11:30.573Z,5.32
2023-04-02T02:13:58.470Z,5.28
2023-04-02T02:16:29.737Z,5.25
2023-04-02T02:19:00.423Z,5.23
2023-04-02T02:21:36.374Z,5.22
2023-04-02T02:24:04.848Z,5.18
2023-04-02T02:26:34.037Z,5.13
2023-04-02T02:29:02.091Z,5.10
2023-04-02T02:31:33.375Z,5.02
2023-04-02T02:34:08.087Z,4.94
2023-04-02T02:36:51.242Z,4.83
2023-04-02T02:39:24.531Z,4.79
2023-04-02T02:42:00.885Z,4.74
2023-04-02T02:44:29.527Z,4.69
2023-04-02T02:47:03.976Z,4.68
2023-04-02T02:49:36.304Z,4.66
2023-04-02T02:52:08.647Z,4.63
2023-04-02T02:54:38.594Z,4.64
2023-04-02T02:57:10.471Z,4.61
2023-04-02T02:59:38.277Z,4.60
2023-04-02T03:02:06.981Z,4.61
2023-04-02T03:04:37.037Z,4.55
2023-04-02T03:07:06.093Z,4.55
2023-04-02T03:10:09.839Z,4.55
2023-04-02T03:12:45.716Z,4.52
2023-04-02T03:15:23.587Z,4.52
2023-04-02T03:18:03.632Z,4.51
2023-04-02T03:20:48.318Z,4.50
2023-04-02T03:23:27.511Z,4.49
2023-04-02T03:26:05.410Z,4.49
2023-04-02T03:28:37.308Z,4.47
2023-04-02T03:31:10.021Z,4.45
2023-04-02T03:33:42.113Z,4.43
2023-04-02T03:36:20.936Z,4.43
2023-04-02T03:38:52.343Z,4.42
2023-04-02T03:41:29.689Z,4.42
2023-04-02T03:44:00.614Z,4.39
2023-04-02T03:46:31.034Z,4.36
2023-04-02T03:49:01.357Z,4.35
2023-04-02T03:51:36.420Z,4.35
2023-04-02T03:54:03.607Z,4.35
2023-04-02T03:56:39.618Z,4.34
2023-04-02T03:59:15.320Z,4.33
2023-04-02T04:02:12.717Z,4.33
2023-04-02T04:04:42.031Z,4.33
2023-04-02T04:07:19.599Z,4.34
2023-04-02T04:09:48.528Z,4.34
2023-04-02T04:12:22.301Z,4.32
2023-04-02T04:14:59.845Z,4.30
2023-04-02T04:17:30.889Z,4.28
2023-04-02T04:20:07.691Z,4.27
2023-04-02T04:22:34.403Z,4.25
2023-04-02T04:25:04.537Z,4.19
2023-04-02T04:27:42.797Z,4.12
2023-04-02T04:30:27.253Z,4.07
2023-04-02T04:33:01.956Z,4.02
2023-04-02T04:35:36.932Z,3.98
2023-04-02T04:38:14.400Z,3.90
2023-04-02T04:40:56.006Z,3.85
2023-04-02T04:43:33.453Z,3.80
2023-04-02T04:46:08.909Z,3.79
2023-04-02T04:48:47.078Z,3.74
2023-04-02T04:51:22.412Z,3.69
2023-04-02T04:53:52.785Z,3.68
2023-04-02T04:56:25.593Z,3.67
2023-04-02T04:59:00.230Z,3.68
2023-04-02T05:01:35.730Z,3.66
2023-04-02T05:04:25.233Z,3.67
2023-04-02T05:07:16.478Z,3.57
2023-04-02T05:09:51.776Z,3.45
2023-04-02T05:12:39.678Z,3.37
2023-04-02T05:15:32.211Z,3.23
2023-04-02T05:18:17.523Z,3.11
2023-04-02T05:20:52.304Z,3.03
2023-04-02T05:23:36.133Z,2.88
2023-04-02T05:26:08.797Z,2.83
2023-04-02T05:28:40.581Z,2.82
2023-04-02T05:31:21.073Z,2.74
2023-04-02T05:33:49.205Z,2.70
2023-04-02T05:36:29.103Z,2.64
2023-04-02T05:38:57.671Z,2.56
2023-04-02T05:41:36.575Z,2.53
2023-04-02T05:44:28.426Z,2.47
2023-04-02T05:47:01.642Z,2.41
2023-04-02T05:49:44.576Z,2.37
2023-04-02T05:52:19.733Z,2.34
2023-04-02T05:54:52.322Z,2.36
2023-04-02T05:57:44.658Z,2.39
2023-04-02T06:00:20.212Z,2.38
2023-04-02T06:03:00.060Z,2.31
2023-04-02T06:05:33.818Z,2.25
2023-04-02T06:08:10.737Z,2.23
2023-04-02T06:11:06.046Z,2.22
2023-04-02T06:13:32.519Z,2.27
2023-04-02T06:15:59.074Z,2.27
2023-04-02T06:18:28.707Z,2.29
2023-04-02T06:20:55.882Z,2.32
2023-04-02T06:23:32.065Z,2.36
2023-04-02T06:26:04.611Z,2.33
2023-04-02T06:28:40.288Z,2.43
2023-04-02T06:31:16.778Z,2.42
2023-04-02T06:33:43.472Z,2.42
2023-04-02T06:36:12.097Z,2.41
2023-04-02T06:38:40.516Z,2.49
2023-04-02T06:41:17.242Z,2.53
2023-04-02T06:43:54.033Z,2.56
2023-04-02T06:46:32.269Z,2.52
2023-04-02T06:49:16.260Z,2.54
2023-04-02T06:51:45.725Z,2.65
2023-04-02T06:54:16.073Z,2.72
2023-04-02T06:56:46.602Z,2.76
2023-04-02T06:59:14.412Z,2.82
2023-04-02T07:01:49.098Z,2.73
2023-04-02T07:04:15.963Z,2.76
2023-04-02T07:06:42.411Z,2.76
2023-04-02T07:09:08.921Z,2.73
2023-04-02T07:11:35.438Z,2.75
2023-04-02T07:14:02.227Z,2.80
2023-04-02T07:16:31.759Z,2.80
2023-04-02T07:19:02.894Z,2.79
2023-04-02T07:21:29.896Z,2.80
2023-04-02T07:23:56.234Z,2.85
2023-04-02T07:26:25.412Z,2.87
2023-04-02T07:28:52.014Z,2.95
2023-04-02T07:31:24.453Z,2.85
2023-04-02T07:33:51.321Z,2.81
2023-04-02T07:36:21.739Z,2.81
2023-04-02T07:38:48.839Z,2.77
2023-04-02T07:41:15.901Z,2.83
2023-04-02T07:43:42.412Z,2.90
2023-04-02T07:46:10.260Z,2.96
2023-04-02T07:48:36.739Z,2.81
2023-04-02T07:51:03.416Z,2.87
2023-04-02T07:53:37.828Z,2.92
2023-04-02T07:56:05.416Z,2.83
2023-04-02T07:58:32.751Z,2.82
2023-04-02T08:01:01.592Z,2.82
2023-04-02T08:03:28.131Z,2.87
2023-04-02T08:05:56.722Z,2.74
2023-04-02T08:08:24.618Z,2.76
2023-04-02T08:10:51.661Z,2.88
2023-04-02T08:13:18.869Z,2.91
2023-04-02T08:15:45.735Z,3.04
2023-04-02T08:18:12.210Z,3.17
2023-04-02T08:20:39.456Z,2.99
2023-04-02T08:23:15.330Z,2.99
2023-04-02T08:25:41.912Z,2.98
2023-04-02T08:28:08.326Z,3.00
2023-04-02T08:30:34.819Z,3.12
2023-04-02T08:33:01.293Z,3.15
2023-04-02T08:35:27.690Z,3.30
2023-04-02T08:37:54.079Z,3.32
2023-04-02T08:40:29.440Z,3.29
2023-04-02T08:43:03.657Z,3.35
2023-04-02T08:45:48.771Z,3.43
2023-04-02T08:48:15.828Z,3.63
2023-04-02T08:50:44.619Z,3.61
2023-04-02T08:53:19.387Z,3.61
2023-04-02T08:55:48.877Z,3.64
2023-04-02T08:58:48.095Z,3.39
2023-04-02T09:01:34.866Z,3.31
2023-04-02T09:04:06.906Z,3.18
2023-04-02T09:06:34.499Z,3.41
2023-04-02T09:09:01.134Z,3.33
2023-04-02T09:11:36.084Z,3.31
2023-04-02T09:14:06.902Z,3.30
2023-04-02T09:16:43.544Z,3.49
2023-04-02T09:19:30.922Z,3.64
2023-04-02T09:22:06.439Z,3.91
2023-04-02T09:24:33.307Z,4.32
2023-04-02T09:27:00.049Z,4.42
2023-04-02T09:29:39.686Z,4.45
2023-04-02T09:32:28.177Z,4.49
2023-04-02T09:35:15.120Z,4.54
2023-04-02T09:38:19.701Z,5.00
2023-04-02T09:40:55.293Z,4.87
2023-04-02T09:43:24.649Z,5.08
2023-04-02T09:46:05.672Z,7.60
2023-04-02T09:48:39.399Z,10.36
2023-04-02T09:51:20.214Z,11.25
2023-04-02T09:53:49.133Z,12.85
2023-04-02T09:56:25.611Z,13.21
2023-04-02T09:59:15.462Z,12.83
2023-04-02T10:01:45.150Z,11.60
2023-04-02T10:04:33.498Z,12.46
2023-04-02T10:07:00.008Z,12.68
2023-04-02T10:09:37.778Z,11.94
2023-04-02T10:12:13.752Z,11.66
2023-04-02T10:14:44.334Z,12.78
2023-04-02T10:17:31.343Z,13.51
2023-04-02T10:20:11.363Z,13.11
2023-04-02T10:22:37.753Z,13.43
2023-04-02T10:25:17.407Z,13.29
2023-04-02T10:27:59.748Z,13.96
2023-04-02T10:30:51.630Z,13.13
2023-04-02T10:33:24.170Z,12.74
2023-04-02T10:36:09.732Z,14.05
2023-04-02T10:38:55.518Z,13.92
2023-04-02T10:41:39.371Z,13.10
2023-04-02T10:44:19.410Z,13.29
2023-04-02T10:47:00.200Z,13.96
2023-04-02T10:49:29.276Z,14.39
2023-04-02T10:51:56.004Z,13.93
2023-04-02T10:54:31.588Z,13.86
2023-04-02T10:57:06.775Z,13.93
2023-04-02T10:59:38.099Z,12.99
2023-04-02T11:02:29.594Z,13.08
2023-04-02T11:05:02.063Z,12.67
2023-04-02T11:07:32.316Z,12.97
2023-04-02T11:10:00.782Z,12.90
2023-04-02T11:12:41.413Z,13.41
2023-04-02T11:15:20.309Z,13.48
2023-04-02T11:17:47.604Z,12.84
2023-04-02T11:20:48.722Z,12.51
2023-04-02T11:23:19.140Z,12.90
2023-04-02T11:25:46.841Z,13.74
2023-04-02T11:28:27.380Z,12.84
2023-04-02T11:30:54.491Z,12.03
2023-04-02T11:33:38.230Z,12.33
2023-04-02T11:36:44.412Z,13.09
2023-04-02T11:39:17.278Z,13.61
2023-04-02T11:41:56.100Z,12.92
2023-04-02T11:44:24.182Z,13.19
2023-04-02T11:46:51.534Z,13.52
2023-04-02T11:49:41.080Z,13.09
2023-04-02T11:52:21.800Z,12.29
2023-04-02T11:54:58.144Z,11.99
2023-04-02T11:57:47.043Z,12.48
2023-04-02T12:00:19.476Z,12.70
2023-04-02T12:03:04.509Z,13.41
2023-04-02T12:05:43.131Z,13.19
2023-04-02T12:08:24.455Z,12.98
2023-04-02T12:10:58.162Z,12.77
2023-04-02T12:13:39.793Z,13.16
2023-04-02T12:16:08.501Z,12.37
2023-04-02T12:18:35.845Z,12.40
2023-04-02T12:21:02.500Z,12.55
2023-04-02T12:23:35.318Z,12.30
2023-04-02T12:26:06.399Z,12.05
2023-04-02T12:28:38.058Z,12.61
2023-04-02T12:31:13.022Z,12.55
2023-04-02T12:33:41.442Z,12.24
2023-04-02T12:36:16.981Z,11.70
2023-04-02T12:38:46.967Z,11.01
2023-04-02T12:41:24.155Z,10.48
2023-04-02T12:44:00.907Z,10.27
2023-04-02T12:46:29.689Z,10.14
2023-04-02T12:49:21.001Z,10.19
2023-04-02T12:51:48.426Z,10.08
2023-04-02T12:54:20.698Z,9.97
2023-04-02T12:56:48.313Z,9.62
2023-04-02T12:59:44.839Z,9.27
2023-04-02T13:02:21.119Z,9.06
2023-04-02T13:04:53.049Z,9.30
2023-04-02T13:07:22.279Z,9.51
2023-04-02T13:09:54.742Z,9.37
2023-04-02T13:12:25.534Z,9.49
2023-04-02T13:14:59.636Z,9.65
2023-04-02T13:17:36.802Z,9.63
2023-04-02T13:20:31.168Z,9.51
2023-04-02T13:22:58.840Z,9.46
2023-04-02T13:25:31.214Z,9.54
2023-04-02T13:27:58.192Z,9.52
2023-04-02T13:30:27.465Z,9.70
2023-04-02T13:32:54.715Z,9.71
2023-04-02T13:35:22.380Z,9.52
2023-04-02T13:37:49.031Z,9.14
2023-04-02T13:40:16.787Z,9.26
2023-04-02T13:42:43.907Z,9.37
2023-04-02T13:45:22.405Z,9.41
2023-04-02T13:47:48.822Z,9.35
2023-04-02T13:50:23.372Z,9.65
2023-04-02T13:52:53.689Z,9.78
2023-04-02T13:55:24.203Z,9.44
2023-04-02T13:57:51.034Z,9.38
2023-04-02T14:00:18.127Z,9.25
2023-04-02T14:02:50.779Z,9.48
2023-04-02T14:05:38.239Z,9.51
2023-04-02T14:08:08.937Z,9.35
2023-04-02T14:11:03.116Z,9.30
2023-04-02T14:13:53.407Z,9.42
2023-04-02T14:16:27.998Z,9.61
2023-04-02T14:18:57.361Z,9.49
2023-04-02T14:21:44.904Z,9.35
2023-04-02T14:24:17.272Z,9.37
2023-04-02T14:27:03.012Z,9.35
2023-04-02T14:29:37.862Z,9.46
2023-04-02T14:32:13.620Z,9.60
2023-04-02T14:34:54.831Z,9.73
2023-04-02T14:38:12.284Z,9.57
2023-04-02T14:40:46.116Z,9.55
2023-04-02T14:43:22.439Z,9.71
2023-04-02T14:45:57.540Z,9.62
2023-04-02T14:48:32.732Z,9.57
2023-04-02T14:51:05.347Z,9.65
2023-04-02T14:53:42.032Z,9.72
2023-04-02T14:56:12.433Z,9.72
2023-04-02T14:58:46.735Z,9.70
2023-04-02T15:01:28.386Z,9.60
2023-04-02T15:04:03.050Z,9.63
2023-04-02T15:06:41.521Z,9.66
2023-04-02T15:09:16.508Z,9.66
2023-04-02T15:11:50.230Z,9.60
2023-04-02T15:14:19.314Z,9.58
2023-04-02T15:16:47.088Z,9.63
2023-04-02T15:19:17.702Z,9.61
2023-04-02T15:22:09.670Z,9.48
2023-04-02T15:25:03.086Z,9.46
2023-04-02T15:27:41.452Z,9.39
2023-04-02T15:30:39.134Z,9.48
2023-04-02T15:33:27.662Z,9.51
2023-04-02T15:36:03.640Z,9.47
2023-04-02T15:38:41.976Z,9.37
2023-04-02T15:41:23.892Z,9.38
2023-04-02T15:44:12.782Z,9.30
2023-04-02T15:46:51.229Z,9.27
2023-04-02T15:49:43.215Z,9.22
2023-04-02T15:52:40.861Z,9.26
2023-04-02T15:55:14.017Z,9.34
2023-04-02T15:58:10.912Z,9.39
2023-04-02T16:01:01.456Z,9.35
2023-04-02T16:03:36.658Z,9.28
2023-04-02T16:06:25.297Z,9.20
2023-04-02T16:09:19.119Z,9.20
2023-04-02T16:11:45.571Z,9.19
2023-04-02T16:14:28.986Z,9.24
2023-04-02T16:17:23.814Z,9.31
2023-04-02T16:19:55.914Z,9.32
2023-04-02T16:22:30.598Z,9.28
2023-04-02T16:25:01.068Z,9.23
2023-04-02T16:27:52.518Z,9.23
2023-04-02T16:30:43.987Z,9.16
2023-04-02T16:33:41.183Z,9.09
2023-04-02T16:36:29.301Z,9.07
2023-04-02T16:39:07.930Z,9.05
2023-04-02T16:42:04.797Z,8.96
2023-04-02T16:44:43.239Z,8.95
2023-04-02T16:47:28.440Z,8.91
2023-04-02T16:50:01.130Z,8.91
2023-04-02T16:52:45.615Z,8.91
2023-04-02T16:55:43.275Z,8.88
2023-04-02T16:58:28.478Z,8.85
2023-04-02T17:01:18.116Z,8.72
2023-04-02T17:03:50.577Z,8.65
2023-04-02T17:06:26.459Z,8.57
2023-04-02T17:09:01.887Z,8.57
2023-04-02T17:11:39.947Z,8.58
2023-04-02T17:14:29.794Z,8.56
2023-04-02T17:17:01.959Z,8.55
2023-04-02T17:19:29.622Z,8.49
2023-04-02T17:22:00.916Z,8.38
2023-04-02T17:24:38.910Z,8.31
2023-04-02T17:27:13.786Z,8.30
2023-04-02T17:29:44.021Z,8.32
2023-04-02T17:32:18.181Z,8.26
2023-04-02T17:34:44.566Z,8.17
2023-04-02T17:37:35.842Z,8.15
2023-04-02T17:40:39.690Z,8.08
2023-04-02T17:43:18.989Z,7.99
2023-04-02T17:45:54.597Z,7.93
2023-04-02T17:48:41.181Z,7.94
2023-04-02T17:51:31.681Z,7.84
2023-04-02T17:54:27.688Z,7.73
2023-04-02T17:57:31.721Z,7.77
2023-04-02T18:00:16.115Z,7.68
2023-04-02T18:02:45.672Z,7.60
2023-04-02T18:05:12.019Z,7.53
2023-04-02T18:08:02.936Z,7.48
2023-04-02T18:10:47.857Z,7.34
2023-04-02T18:13:45.313Z,7.27
2023-04-02T18:16:33.442Z,7.27
2023-04-02T18:19:37.032Z,7.22
2023-04-02T18:22:25.742Z,7.19
2023-04-02T18:25:15.019Z,7.15
2023-04-02T18:28:26.151Z,7.02
2023-04-02T18:31:08.023Z,6.96
2023-04-02T18:34:20.070Z,6.82
2023-04-02T18:37:13.617Z,6.67
2023-04-02T18:40:30.646Z,6.53
2023-04-02T18:43:29.203Z,6.49
2023-04-02T18:46:23.892Z,6.43
2023-04-02T18:49:19.831Z,6.38
2023-04-02T18:51:49.191Z,6.30
2023-04-02T18:54:39.074Z,6.25
2023-04-02T18:57:23.981Z,6.23
2023-04-02T19:00:29.510Z,6.15
2023-04-02T19:03:11.442Z,6.11
2023-04-02T19:05:54.661Z,6.11
2023-04-02T19:08:28.602Z,6.06
2023-04-02T19:11:01.990Z,6.04
2023-04-02T19:13:28.564Z,6.01
2023-04-02T19:16:25.396Z,6.05
2023-04-02T19:19:15.661Z,6.07
2023-04-02T19:21:51.548Z,5.96
2023-04-02T19:24:27.286Z,5.91
2023-04-02T19:26:59.196Z,5.80
2023-04-02T19:30:06.661Z,5.71
2023-04-02T19:32:48.806Z,5.63
2023-04-02T19:35:31.967Z,5.57
2023-04-02T19:38:31.007Z,5.59
2023-04-02T19:40:57.452Z,5.56
2023-04-02T19:43:23.929Z,5.47
2023-04-02T19:45:50.784Z,5.41
2023-04-02T19:48:21.610Z,5.38
2023-04-02T19:50:49.132Z,5.35
2023-04-02T19:53:16.154Z,5.34
2023-04-02T19:55:43.818Z,5.34
2023-04-02T19:58:30.999Z,5.33
2023-04-02T20:00:58.058Z,5.40
2023-04-02T20:03:24.678Z,5.50
2023-04-02T20:05:51.240Z,5.55
2023-04-02T20:08:17.791Z,5.52
2023-04-02T20:10:45.250Z,5.48
2023-04-02T20:13:11.960Z,5.38
2023-04-02T20:15:39.720Z,5.40
2023-04-02T20:18:06.461Z,5.43
2023-04-02T20:20:32.940Z,5.44
2023-04-02T20:22:59.520Z,5.40
2023-04-02T20:25:26.031Z,5.33
2023-04-02T20:27:52.653Z,5.29
2023-04-02T20:30:19.168Z,5.27
2023-04-02T20:32:45.829Z,5.25
2023-04-02T20:35:12.349Z,5.23
2023-04-02T20:37:40.849Z,5.16
2023-04-02T20:40:08.537Z,5.09
2023-04-02T20:42:34.926Z,5.07
2023-04-02T20:45:01.318Z,5.02
2023-04-02T20:47:27.768Z,4.98
2023-04-02T20:49:54.244Z,4.96
2023-04-02T20:52:21.927Z,4.93
2023-04-02T20:54:49.334Z,4.80
2023-04-02T20:57:15.914Z,4.81
2023-04-02T20:59:42.295Z,4.80
2023-04-02T21:02:11.546Z,4.76
2023-04-02T21:04:37.966Z,4.72
2023-04-02T21:07:04.460Z,4.71
2023-04-02T21:09:30.821Z,4.69
2023-04-02T21:11:57.197Z,4.60
2023-04-02T21:14:24.028Z,4.55
2023-04-02T21:16:50.643Z,4.50
2023-04-02T21:19:17.024Z,4.50
2023-04-02T21:21:44.855Z,4.44
2023-04-02T21:24:11.493Z,4.40
2023-04-02T21:26:40.500Z,4.42
2023-04-02T21:29:07.252Z,4.42
2023-04-02T21:31:37.135Z,4.35
2023-04-02T21:34:04.901Z,4.32
2023-04-02T21:36:36.837Z,4.28
2023-04-02T21:39:06.942Z,4.26
2023-04-02T21:41:41.875Z,4.26
2023-04-02T21:44:10.216Z,4.19
2023-04-02T21:46:39.097Z,4.15
2023-04-02T21:49:08.115Z,4.10
2023-04-02T21:51:36.461Z,4.07
2023-04-02T21:54:03.394Z,4.01
2023-04-02T21:56:35.498Z,3.97
2023-04-02T21:59:02.747Z,3.98
2023-04-02T22:01:36.066Z,3.94
2023-04-02T22:04:05.625Z,3.90
2023-04-02T22:06:36.317Z,3.82
2023-04-02T22:09:06.382Z,3.75
2023-04-02T22:11:38.817Z,3.70
2023-04-02T22:14:05.903Z,3.63
2023-04-02T22:16:34.629Z,3.63
2023-04-02T22:19:04.444Z,3.66
2023-04-02T22:21:31.763Z,3.58
2023-04-02T22:24:04.235Z,3.54
2023-04-02T22:26:32.519Z,3.52
2023-04-02T22:28:59.916Z,3.49
2023-04-02T22:31:29.562Z,3.48
2023-04-02T22:33:57.760Z,3.41
2023-04-02T22:36:25.760Z,3.35
2023-04-02T22:38:52.494Z,3.28
2023-04-02T22:41:26.351Z,3.28
2023-04-02T22:43:53.833Z,3.24
2023-04-02T22:46:20.878Z,3.19
2023-04-02T22:48:48.830Z,3.16
2023-04-02T22:51:17.015Z,3.14
2023-04-02T22:53:43.685Z,3.12
2023-04-02T22:56:16.866Z,3.05
2023-04-02T22:58:43.417Z,3.01
2023-04-02T23:01:15.358Z,2.96
2023-04-02T23:03:41.862Z,2.93
2023-04-02T23:06:11.578Z,2.92
2023-04-02T23:08:39.399Z,2.86
2023-04-02T23:11:11.826Z,2.85
2023-04-02T23:13:39.545Z,2.82
2023-04-02T23:16:08.672Z,2.79
2023-04-02T23:18:35.791Z,2.77
2023-04-02T23:21:02.748Z,2.76
2023-04-02T23:23:29.411Z,2.73
2023-04-02T23:26:08.439Z,2.80
2023-04-02T23:28:35.966Z,2.81
2023-04-02T23:31:04.348Z,2.83
2023-04-02T23:33:30.902Z,2.76
2023-04-02T23:35:58.320Z,2.77
2023-04-02T23:38:25.998Z,2.76
2023-04-02T23:40:53.348Z,2.73
2023-04-02T23:43:19.712Z,2.73
2023-04-02T23:45:50.424Z,2.72
2023-04-02T23:48:17.589Z,2.67
2023-04-02T23:50:45.359Z,2.64
2023-04-02T23:53:13.070Z,2.61
2023-04-02T23:55:40.459Z,2.60
2023-04-02T23:58:07.037Z,2.60
